sensor_id;sensor_type;location;lat;lon;timestamp;pressure;altitude;pressure_sealevel;temperature;humidity
58243;BME280;50118;53.232;8.252;2023-04-04T00:01:18;103058.41;;;-2.44;100.00
58243;BME280;50118;53.232;8.252;2023-04-04T00:03:43;103060.16;;;-2.46;100.00
58243;BME280;50118;53.232;8.252;2023-04-04T00:06:09;103060.16;;;-2.54;100.00
58243;BME280;50118;53.232;8.252;2023-04-04T00:08:34;103059.31;;;-2.54;100.00
58243;BME280;50118;53.232;8.252;2023-04-04T00:10:59;103063.66;;;-2.59;100.00
58243;BME280;50118;53.232;8.252;2023-04-04T00:13:25;103067.13;;;-2.57;100.00
58243;BME280;50118;53.232;8.252;2023-04-04T00:15:52;103057.59;;;-2.63;100.00
58243;BME280;50118;53.232;8.252;2023-04-04T00:18:17;103051.50;;;-2.64;100.00
58243;BME280;50118;53.232;8.252;2023-04-04T00:20:43;103050.66;;;-2.67;100.00
58243;BME280;50118;53.232;8.252;2023-04-04T00:23:08;103046.28;;;-2.76;100.00
58243;BME280;50118;53.232;8.252;2023-04-04T00:25:36;103058.47;;;-2.78;100.00
58243;BME280;50118;53.232;8.252;2023-04-04T00:28:02;103047.19;;;-2.83;100.00
58243;BME280;50118;53.232;8.252;2023-04-04T00:30:30;103048.03;;;-2.81;100.00
58243;BME280;50118;53.232;8.252;2023-04-04T00:32:56;103052.41;;;-2.83;100.00
58243;BME280;50118;53.232;8.252;2023-04-04T00:35:22;103048.94;;;-2.90;100.00
58243;BME280;50118;53.232;8.252;2023-04-04T00:37:47;103035.88;;;-2.91;100.00
58243;BME280;50118;53.232;8.252;2023-04-04T00:40:13;103048.06;;;-2.90;100.00
58243;BME280;50118;53.232;8.252;2023-04-04T00:42:39;103049.81;;;-2.95;100.00
58243;BME280;50118;53.232;8.252;2023-04-04T00:45:06;103046.34;;;-2.97;100.00
58243;BME280;50118;53.232;8.252;2023-04-04T00:47:32;103046.34;;;-3.01;100.00
58243;BME280;50118;53.232;8.252;2023-04-04T00:49:58;103042.88;;;-3.01;100.00
58243;BME280;50118;53.232;8.252;2023-04-04T00:52:24;103039.41;;;-3.05;100.00
58243;BME280;50118;53.232;8.252;2023-04-04T00:54:49;103035.03;;;-3.10;100.00
58243;BME280;50118;53.232;8.252;2023-04-04T00:57:15;103025.50;;;-3.13;100.00
58243;BME280;50118;53.232;8.252;2023-04-04T00:59:42;103022.88;;;-3.14;100.00
58243;BME280;50118;53.232;8.252;2023-04-04T01:02:07;103028.97;;;-3.17;100.00
58243;BME280;50118;53.232;8.252;2023-04-04T01:04:33;103015.94;;;-3.22;100.00
58243;BME280;50118;53.232;8.252;2023-04-04T01:06:59;103017.66;;;-3.21;100.00
58243;BME280;50118;53.232;8.252;2023-04-04T01:09:26;103018.53;;;-3.26;100.00
58243;BME280;50118;53.232;8.252;2023-04-04T01:11:54;103009.84;;;-3.33;100.00
58243;BME280;50118;53.232;8.252;2023-04-04T01:14:20;103004.63;;;-3.41;100.00
58243;BME280;50118;53.232;8.252;2023-04-04T01:16:47;103007.25;;;-3.34;100.00
58243;BME280;50118;53.232;8.252;2023-04-04T01:19:37;103011.59;;;-3.36;100.00
58243;BME280;50118;53.232;8.252;2023-04-04T01:22:03;103002.91;;;-3.45;100.00
58243;BME280;50118;53.232;8.252;2023-04-04T01:24:32;103008.97;;;-3.43;100.00
58243;BME280;50118;53.232;8.252;2023-04-04T01:26:58;103011.56;;;-3.46;100.00
58243;BME280;50118;53.232;8.252;2023-04-04T01:29:25;103009.84;;;-3.47;100.00
58243;BME280;50118;53.232;8.252;2023-04-04T01:32:10;103014.22;;;-3.49;100.00
58243;BME280;50118;53.232;8.252;2023-04-04T01:40:02;103011.59;;;-3.49;100.00
58243;BME280;50118;53.232;8.252;2023-04-04T01:42:30;103001.19;;;-3.49;100.00
58243;BME280;50118;53.232;8.252;2023-04-04T01:44:56;103005.53;;;-3.55;100.00
58243;BME280;50118;53.232;8.252;2023-04-04T01:47:22;102997.69;;;-3.57;100.00
58243;BME280;50118;53.232;8.252;2023-04-04T01:49:47;103002.00;;;-3.58;100.00
58243;BME280;50118;53.232;8.252;2023-04-04T01:52:13;102992.47;;;-3.60;100.00
58243;BME280;50118;53.232;8.252;2023-04-04T01:54:38;102995.97;;;-3.64;100.00
58243;BME280;50118;53.232;8.252;2023-04-04T01:57:04;102999.41;;;-3.71;100.00
58243;BME280;50118;53.232;8.252;2023-04-04T01:59:29;102990.72;;;-3.73;100.00
58243;BME280;50118;53.232;8.252;2023-04-04T02:01:54;102995.06;;;-3.76;100.00
58243;BME280;50118;53.232;8.252;2023-04-04T02:04:20;102995.91;;;-3.77;100.00
58243;BME280;50118;53.232;8.252;2023-04-04T02:06:46;102994.19;;;-3.81;100.00
58243;BME280;50118;53.232;8.252;2023-04-04T02:09:11;102993.31;;;-3.83;100.00
58243;BME280;50118;53.232;8.252;2023-04-04T02:11:37;102992.44;;;-3.85;100.00
58243;BME280;50118;53.232;8.252;2023-04-04T02:14:03;102992.44;;;-3.82;100.00
58243;BME280;50118;53.232;8.252;2023-04-04T02:16:29;102992.44;;;-3.85;100.00
58243;BME280;50118;53.232;8.252;2023-04-04T02:18:55;102992.44;;;-3.82;100.00
58243;BME280;50118;53.232;8.252;2023-04-04T02:21:20;102985.50;;;-3.89;100.00
58243;BME280;50118;53.232;8.252;2023-04-04T02:23:46;102997.66;;;-3.91;100.00
58243;BME280;50118;53.232;8.252;2023-04-04T02:26:11;102988.09;;;-3.89;100.00
58243;BME280;50118;53.232;8.252;2023-04-04T02:28:36;102984.63;;;-3.91;100.00
58243;BME280;50118;53.232;8.252;2023-04-04T02:31:02;102985.50;;;-3.89;100.00
58243;BME280;50118;53.232;8.252;2023-04-04T02:33:28;102985.50;;;-3.89;100.00
58243;BME280;50118;53.232;8.252;2023-04-04T02:35:57;102986.34;;;-3.88;100.00
58243;BME280;50118;53.232;8.252;2023-04-04T02:38:23;102994.16;;;-3.90;100.00
58243;BME280;50118;53.232;8.252;2023-04-04T02:40:50;102989.81;;;-3.96;100.00
58243;BME280;50118;53.232;8.252;2023-04-04T02:43:15;102989.78;;;-4.00;100.00
58243;BME280;50118;53.232;8.252;2023-04-04T02:45:41;102984.63;;;-4.02;100.00
58243;BME280;50118;53.232;8.252;2023-04-04T02:48:06;102982.88;;;-3.98;100.00
58243;BME280;50118;53.232;8.252;2023-04-04T02:50:32;102979.41;;;-4.02;100.00
58243;BME280;50118;53.232;8.252;2023-04-04T02:53:01;102979.38;;;-4.00;100.00
58243;BME280;50118;53.232;8.252;2023-04-04T02:55:26;102988.94;;;-4.02;100.00
58243;BME280;50118;53.232;8.252;2023-04-04T02:57:52;102979.41;;;-4.02;100.00
58243;BME280;50118;53.232;8.252;2023-04-04T03:00:17;102968.09;;;-4.02;100.00
58243;BME280;50118;53.232;8.252;2023-04-04T03:02:43;102966.38;;;-4.05;100.00
58243;BME280;50118;53.232;8.252;2023-04-04T03:05:10;102966.34;;;-4.09;100.00
58243;BME280;50118;53.232;8.252;2023-04-04T03:07:35;102965.50;;;-4.11;100.00
58243;BME280;50118;53.232;8.252;2023-04-04T03:10:01;102964.63;;;-4.14;100.00
58243;BME280;50118;53.232;8.252;2023-04-04T03:12:26;102962.88;;;-4.11;100.00
58243;BME280;50118;53.232;8.252;2023-04-04T03:14:52;102949.00;;;-4.17;100.00
58243;BME280;50118;53.232;8.252;2023-04-04T03:17:18;102948.97;;;-4.20;100.00
58243;BME280;50118;53.232;8.252;2023-04-04T03:19:43;102944.63;;;-4.19;100.00
58243;BME280;50118;53.232;8.252;2023-04-04T03:22:09;102946.38;;;-4.18;100.00
58243;BME280;50118;53.232;8.252;2023-04-04T03:24:34;102948.97;;;-4.20;100.00
58243;BME280;50118;53.232;8.252;2023-04-04T03:27:00;102943.78;;;-4.20;100.00
58243;BME280;50118;53.232;8.252;2023-04-04T03:29:26;102943.75;;;-4.23;100.00
58243;BME280;50118;53.232;8.252;2023-04-04T03:31:51;102942.03;;;-4.27;100.00
58243;BME280;50118;53.232;8.252;2023-04-04T03:34:17;102947.25;;;-4.24;100.00
58243;BME280;50118;53.232;8.252;2023-04-04T03:36:42;102940.28;;;-4.25;100.00
58243;BME280;50118;53.232;8.252;2023-04-04T03:39:07;102935.06;;;-4.28;100.00
58243;BME280;50118;53.232;8.252;2023-04-04T03:41:34;102935.06;;;-4.28;100.00
58243;BME280;50118;53.232;8.252;2023-04-04T03:44:03;102920.31;;;-4.35;100.00
58243;BME280;50118;53.232;8.252;2023-04-04T03:46:28;102924.66;;;-4.37;100.00
58243;BME280;50118;53.232;8.252;2023-04-04T03:48:54;102935.06;;;-4.37;100.00
58243;BME280;50118;53.232;8.252;2023-04-04T03:51:26;102931.56;;;-4.39;100.00
58243;BME280;50118;53.232;8.252;2023-04-04T03:53:54;102932.44;;;-4.42;100.00
58243;BME280;50118;53.232;8.252;2023-04-04T03:56:20;102935.03;;;-4.43;100.00
58243;BME280;50118;53.232;8.252;2023-04-04T03:58:46;102935.91;;;-4.43;100.00
58243;BME280;50118;53.232;8.252;2023-04-04T04:01:11;102933.31;;;-4.41;100.00
58243;BME280;50118;53.232;8.252;2023-04-04T04:03:37;102935.06;;;-4.37;100.00
58243;BME280;50118;53.232;8.252;2023-04-04T04:06:02;102929.88;;;-4.34;100.00
58243;BME280;50118;53.232;8.252;2023-04-04T04:08:28;102937.69;;;-4.34;100.00
58243;BME280;50118;53.232;8.252;2023-04-04T04:10:53;102933.34;;;-4.35;100.00
58243;BME280;50118;53.232;8.252;2023-04-04T04:13:19;102931.56;;;-4.36;100.00
58243;BME280;50118;53.232;8.252;2023-04-04T04:15:44;102939.38;;;-4.38;100.00
58243;BME280;50118;53.232;8.252;2023-04-04T04:18:10;102938.53;;;-4.38;100.00
58243;BME280;50118;53.232;8.252;2023-04-04T04:20:35;102927.25;;;-4.39;100.00
58243;BME280;50118;53.232;8.252;2023-04-04T04:23:01;102935.06;;;-4.40;100.00
58243;BME280;50118;53.232;8.252;2023-04-04T04:25:26;102942.00;;;-4.42;100.00
58243;BME280;50118;53.232;8.252;2023-04-04T04:27:55;102948.91;;;-4.44;100.00
58243;BME280;50118;53.232;8.252;2023-04-04T04:30:23;102941.09;;;-4.47;100.00
58243;BME280;50118;53.232;8.252;2023-04-04T04:32:49;102936.78;;;-4.42;100.00
58243;BME280;50118;53.232;8.252;2023-04-04T04:35:14;102935.00;;;-4.46;100.00
58243;BME280;50118;53.232;8.252;2023-04-04T04:37:40;102945.44;;;-4.43;100.00
58243;BME280;50118;53.232;8.252;2023-04-04T04:40:07;102936.78;;;-4.42;100.00
58243;BME280;50118;53.232;8.252;2023-04-04T04:42:33;102937.63;;;-4.43;100.00
58243;BME280;50118;53.232;8.252;2023-04-04T04:44:58;102934.19;;;-4.44;100.00
58243;BME280;50118;53.232;8.252;2023-04-04T04:47:24;102928.09;;;-4.41;100.00
58243;BME280;50118;53.232;8.252;2023-04-04T04:49:49;102934.16;;;-4.39;100.00
58243;BME280;50118;53.232;8.252;2023-04-04T04:52:15;102934.16;;;-4.39;100.00
58243;BME280;50118;53.232;8.252;2023-04-04T04:54:40;102935.91;;;-4.40;100.00
58243;BME280;50118;53.232;8.252;2023-04-04T04:57:07;102942.88;;;-4.37;100.00
58243;BME280;50118;53.232;8.252;2023-04-04T04:59:33;102933.28;;;-4.44;100.00
58243;BME280;50118;53.232;8.252;2023-04-04T05:01:58;102937.66;;;-4.39;100.00
58243;BME280;50118;53.232;8.252;2023-04-04T05:04:24;102938.53;;;-4.35;100.00
58243;BME280;50118;53.232;8.252;2023-04-04T05:06:49;102940.28;;;-4.34;100.00
58243;BME280;50118;53.232;8.252;2023-04-04T05:09:14;102944.63;;;-4.32;100.00
58243;BME280;50118;53.232;8.252;2023-04-04T05:11:40;102942.03;;;-4.30;100.00
58243;BME280;50118;53.232;8.252;2023-04-04T05:14:05;102948.06;;;-4.33;100.00
58243;BME280;50118;53.232;8.252;2023-04-04T05:16:31;102958.47;;;-4.33;100.00
58243;BME280;50118;53.232;8.252;2023-04-04T05:18:56;102966.31;;;-4.28;100.00
58243;BME280;50118;53.232;8.252;2023-04-04T05:21:22;102964.56;;;-4.30;100.00
58243;BME280;50118;53.232;8.252;2023-04-04T05:23:47;102964.59;;;-4.29;100.00
58243;BME280;50118;53.232;8.252;2023-04-04T05:26:13;102969.78;;;-4.23;100.00
58243;BME280;50118;53.232;8.252;2023-04-04T05:28:38;102963.75;;;-4.20;100.00
58243;BME280;50118;53.232;8.252;2023-04-04T05:31:05;102965.47;;;-4.18;100.00
58243;BME280;50118;53.232;8.252;2023-04-04T05:33:30;102968.94;;;-4.16;100.00
58243;BME280;50118;53.232;8.252;2023-04-04T05:35:56;102968.09;;;-4.15;100.00
58243;BME280;50118;53.232;8.252;2023-04-04T05:38:23;102962.88;;;-4.11;100.00
58243;BME280;50118;53.232;8.252;2023-04-04T05:40:48;102959.44;;;-4.03;100.00
58243;BME280;50118;53.232;8.252;2023-04-04T05:43:14;102959.44;;;-3.89;100.00
58243;BME280;50118;53.232;8.252;2023-04-04T05:45:39;102954.28;;;-3.80;100.00
58243;BME280;50118;53.232;8.252;2023-04-04T05:48:04;102956.00;;;-3.69;100.00
58243;BME280;50118;53.232;8.252;2023-04-04T05:50:30;102957.75;;;-3.65;100.00
58243;BME280;50118;53.232;8.252;2023-04-04T05:52:55;102964.69;;;-3.67;100.00
58243;BME280;50118;53.232;8.252;2023-04-04T05:55:21;102970.78;;;-3.44;100.00
58243;BME280;50118;53.232;8.252;2023-04-04T05:57:47;102971.63;;;-3.25;100.00
58243;BME280;50118;53.232;8.252;2023-04-04T06:00:13;102974.19;;;-2.88;100.00
58243;BME280;50118;53.232;8.252;2023-04-04T06:02:40;102967.13;;;-2.61;100.00
58243;BME280;50118;53.232;8.252;2023-04-04T06:05:06;102967.88;;;-2.30;100.00
58243;BME280;50118;53.232;8.252;2023-04-04T06:07:32;102959.88;;;-2.08;100.00
58243;BME280;50118;53.232;8.252;2023-04-04T06:09:57;102960.69;;;-1.95;100.00
58243;BME280;50118;53.232;8.252;2023-04-04T06:12:22;102965.75;;;-1.72;100.00
58243;BME280;50118;53.232;8.252;2023-04-04T06:14:48;102973.44;;;-1.55;100.00
58243;BME280;50118;53.232;8.252;2023-04-04T06:17:13;102977.50;;;-1.19;100.00
58243;BME280;50118;53.232;8.252;2023-04-04T06:19:39;102970.53;;;-1.20;100.00
58243;BME280;50118;53.232;8.252;2023-04-04T06:22:04;102972.97;;;-1.01;100.00
58243;BME280;50118;53.232;8.252;2023-04-04T06:24:30;102969.50;;;-1.02;100.00
58243;BME280;50118;53.232;8.252;2023-04-04T06:26:55;102965.59;;;-1.54;100.00
58243;BME280;50118;53.232;8.252;2023-04-04T06:29:20;102968.97;;;-1.39;100.00
58243;BME280;50118;53.232;8.252;2023-04-04T06:31:48;102968.91;;;-1.32;100.00
58243;BME280;50118;53.232;8.252;2023-04-04T06:34:13;102974.28;;;-1.52;100.00
58243;BME280;50118;53.232;8.252;2023-04-04T06:36:39;102983.13;;;-1.65;100.00
58243;BME280;50118;53.232;8.252;2023-04-04T06:39:04;102981.41;;;-1.69;100.00
58243;BME280;50118;53.232;8.252;2023-04-04T06:41:29;102974.28;;;-1.52;100.00
58243;BME280;50118;53.232;8.252;2023-04-04T06:43:55;102975.06;;;-1.37;100.00
58243;BME280;50118;53.232;8.252;2023-04-04T06:46:20;102968.75;;;-1.18;100.00
58243;BME280;50118;53.232;8.252;2023-04-04T06:48:46;102963.06;;;-0.71;100.00
58243;BME280;50118;53.232;8.252;2023-04-04T06:51:13;102967.13;;;0.15;100.00
58243;BME280;50118;53.232;8.252;2023-04-04T06:53:38;102965.59;;;1.49;100.00
58243;BME280;50118;53.232;8.252;2023-04-04T06:56:04;102950.97;;;2.52;97.81
58243;BME280;50118;53.232;8.252;2023-04-04T06:58:29;102957.81;;;2.93;85.34
58243;BME280;50118;53.232;8.252;2023-04-04T07:00:55;102946.78;;;4.55;79.40
58243;BME280;50118;53.232;8.252;2023-04-04T07:03:24;102959.34;;;5.23;70.17
58243;BME280;50118;53.232;8.252;2023-04-04T07:05:49;102959.81;;;6.26;68.46
58243;BME280;50118;53.232;8.252;2023-04-04T07:08:15;102955.63;;;5.75;64.47
58243;BME280;50118;53.232;8.252;2023-04-04T07:10:40;102952.44;;;5.89;62.14
58243;BME280;50118;53.232;8.252;2023-04-04T07:13:06;102953.38;;;6.54;60.19
58243;BME280;50118;53.232;8.252;2023-04-04T07:15:32;102954.31;;;6.73;58.07
58243;BME280;50118;53.232;8.252;2023-04-04T07:17:57;102958.25;;;8.01;55.99
58243;BME280;50118;53.232;8.252;2023-04-04T07:20:22;102955.97;;;7.55;53.62
58243;BME280;50118;53.232;8.252;2023-04-04T07:22:48;102950.63;;;8.49;52.33
58243;BME280;50118;53.232;8.252;2023-04-04T07:25:14;102944.94;;;7.83;50.76
58243;BME280;50118;53.232;8.252;2023-04-04T07:27:39;102943.56;;;7.94;50.73
58243;BME280;50118;53.232;8.252;2023-04-04T07:30:05;102938.00;;;8.35;50.98
58243;BME280;50118;53.232;8.252;2023-04-04T07:32:31;102944.56;;;8.28;51.22
58243;BME280;50118;53.232;8.252;2023-04-04T07:34:57;102946.28;;;8.98;49.39
58243;BME280;50118;53.232;8.252;2023-04-04T07:37:22;102932.44;;;9.09;49.26
58243;BME280;50118;53.232;8.252;2023-04-04T07:39:50;102942.19;;;8.04;50.70
58243;BME280;50118;53.232;8.252;2023-04-04T07:42:16;102948.47;;;6.86;55.81
58243;BME280;50118;53.232;8.252;2023-04-04T07:44:50;102945.28;;;7.19;55.12
58243;BME280;50118;53.232;8.252;2023-04-04T07:47:15;102943.94;;;6.47;58.67
58243;BME280;50118;53.232;8.252;2023-04-04T07:49:41;102939.47;;;6.49;57.57
58243;BME280;50118;53.232;8.252;2023-04-04T07:52:06;102942.78;;;6.75;55.08
58243;BME280;50118;53.232;8.252;2023-04-04T07:54:33;102941.03;;;7.15;57.69
58243;BME280;50118;53.232;8.252;2023-04-04T07:56:59;102934.56;;;6.40;55.96
58243;BME280;50118;53.232;8.252;2023-04-04T07:59:24;102938.78;;;5.55;57.93
58243;BME280;50118;53.232;8.252;2023-04-04T08:01:50;102940.47;;;6.24;55.71
58243;BME280;50118;53.232;8.252;2023-04-04T08:04:16;102933.91;;;6.12;57.05
58243;BME280;50118;53.232;8.252;2023-04-04T08:06:41;102939.91;;;7.00;53.67
58243;BME280;50118;53.232;8.252;2023-04-04T08:09:07;102940.41;;;7.85;48.80
58243;BME280;50118;53.232;8.252;2023-04-04T08:11:33;102943.25;;;6.64;53.01
58243;BME280;50118;53.232;8.252;2023-04-04T08:13:59;102937.50;;;6.75;52.74
58243;BME280;50118;53.232;8.252;2023-04-04T08:16:24;102937.81;;;6.87;53.26
58243;BME280;50118;53.232;8.252;2023-04-04T08:18:50;102937.56;;;6.73;53.61
58243;BME280;50118;53.232;8.252;2023-04-04T08:21:15;102944.22;;;5.74;56.30
58243;BME280;50118;53.232;8.252;2023-04-04T08:23:40;102932.25;;;6.73;53.55
58243;BME280;50118;53.232;8.252;2023-04-04T08:26:07;102937.59;;;7.13;51.57
58243;BME280;50118;53.232;8.252;2023-04-04T08:28:32;102939.91;;;7.39;51.34
58243;BME280;50118;53.232;8.252;2023-04-04T08:30:57;102938.13;;;7.00;53.44
58243;BME280;50118;53.232;8.252;2023-04-04T08:33:23;102936.22;;;6.42;56.55
58243;BME280;50118;53.232;8.252;2023-04-04T08:35:49;102937.91;;;7.44;52.77
58243;BME280;50118;53.232;8.252;2023-04-04T08:38:14;102932.09;;;7.74;50.63
58243;BME280;50118;53.232;8.252;2023-04-04T08:40:40;102921.41;;;7.76;49.86
58243;BME280;50118;53.232;8.252;2023-04-04T08:43:06;102922.63;;;7.88;49.25
58243;BME280;50118;53.232;8.252;2023-04-04T08:45:33;102915.25;;;7.75;50.15
58243;BME280;50118;53.232;8.252;2023-04-04T08:48:00;102907.41;;;8.09;48.42
58243;BME280;50118;53.232;8.252;2023-04-04T08:50:28;102915.88;;;8.17;48.78
58243;BME280;50118;53.232;8.252;2023-04-04T08:52:55;102916.94;;;7.00;49.86
58243;BME280;50118;53.232;8.252;2023-04-04T08:55:24;102917.09;;;6.77;53.25
58243;BME280;50118;53.232;8.252;2023-04-04T08:57:50;102909.44;;;8.03;49.29
58243;BME280;50118;53.232;8.252;2023-04-04T09:00:15;102918.31;;;8.39;47.83
58243;BME280;50118;53.232;8.252;2023-04-04T09:02:51;102918.00;;;6.76;51.32
58243;BME280;50118;53.232;8.252;2023-04-04T09:05:19;102927.56;;;7.95;47.93
58243;BME280;50118;53.232;8.252;2023-04-04T09:07:45;102915.53;;;7.31;49.57
58243;BME280;50118;53.232;8.252;2023-04-04T09:10:11;102914.25;;;8.32;47.93
58243;BME280;50118;53.232;8.252;2023-04-04T09:12:40;102908.25;;;8.28;46.62
58243;BME280;50118;53.232;8.252;2023-04-04T09:15:06;102919.78;;;8.27;44.86
58243;BME280;50118;53.232;8.252;2023-04-04T09:17:35;102909.34;;;7.88;46.33
58243;BME280;50118;53.232;8.252;2023-04-04T09:20:01;102918.56;;;7.98;47.28
58243;BME280;50118;53.232;8.252;2023-04-04T09:22:30;102910.44;;;7.26;48.50
58243;BME280;50118;53.232;8.252;2023-04-04T09:24:56;102914.13;;;7.24;48.14
58243;BME280;50118;53.232;8.252;2023-04-04T09:27:22;102914.13;;;7.24;46.56
58243;BME280;50118;53.232;8.252;2023-04-04T09:29:47;102905.66;;;6.13;49.78
58243;BME280;50118;53.232;8.252;2023-04-04T09:32:14;102907.41;;;5.68;51.24
58243;BME280;50118;53.232;8.252;2023-04-04T09:34:43;102909.78;;;6.20;51.43
58243;BME280;50118;53.232;8.252;2023-04-04T09:37:09;102901.19;;;7.35;49.12
58243;BME280;50118;53.232;8.252;2023-04-04T09:39:38;102892.03;;;7.98;46.13
58243;BME280;50118;53.232;8.252;2023-04-04T09:42:05;102895.03;;;7.54;49.44
58243;BME280;50118;53.232;8.252;2023-04-04T09:44:31;102893.44;;;7.11;48.89
58243;BME280;50118;53.232;8.252;2023-04-04T09:47:26;102902.06;;;6.57;51.14
58243;BME280;50118;53.232;8.252;2023-04-04T09:49:56;102902.22;;;7.14;48.62
58243;BME280;50118;53.232;8.252;2023-04-04T09:52:21;102899.88;;;6.87;48.21
58243;BME280;50118;53.232;8.252;2023-04-04T09:55:00;102907.94;;;7.23;47.74
58243;BME280;50118;53.232;8.252;2023-04-04T09:57:31;102908.44;;;7.89;47.04
58243;BME280;50118;53.232;8.252;2023-04-04T09:59:58;102907.59;;;7.50;47.32
58243;BME280;50118;53.232;8.252;2023-04-04T10:02:24;102905.78;;;8.06;47.61
58243;BME280;50118;53.232;8.252;2023-04-04T10:04:52;102913.97;;;7.65;47.42
58243;BME280;50118;53.232;8.252;2023-04-04T10:07:17;102902.63;;;8.69;46.13
58243;BME280;50118;53.232;8.252;2023-04-04T10:09:45;102908.38;;;9.60;42.24
58243;BME280;50118;53.232;8.252;2023-04-04T10:12:11;102892.03;;;10.44;42.39
58243;BME280;50118;53.232;8.252;2023-04-04T10:14:37;102896.69;;;8.29;45.36
58243;BME280;50118;53.232;8.252;2023-04-04T10:17:09;102895.97;;;8.78;44.92
58243;BME280;50118;53.232;8.252;2023-04-04T10:19:38;102888.72;;;8.64;45.32
58243;BME280;50118;53.232;8.252;2023-04-04T10:22:06;102886.69;;;9.52;43.59
58243;BME280;50118;53.232;8.252;2023-04-04T10:24:32;102882.97;;;10.17;42.79
58243;BME280;50118;53.232;8.252;2023-04-04T10:26:58;102886.06;;;10.25;41.26
58243;BME280;50118;53.232;8.252;2023-04-04T10:29:24;102890.47;;;7.38;45.42
58243;BME280;50118;53.232;8.252;2023-04-04T10:31:56;102886.91;;;7.39;44.84
58243;BME280;50118;53.232;8.252;2023-04-04T10:34:29;102885.94;;;7.59;44.63
58243;BME280;50118;53.232;8.252;2023-04-04T10:37:07;102888.91;;;7.15;47.45
58243;BME280;50118;53.232;8.252;2023-04-04T10:42:25;102878.16;;;7.37;43.32
58243;BME280;50118;53.232;8.252;2023-04-04T10:44:54;102876.25;;;7.01;45.32
58243;BME280;50118;53.232;8.252;2023-04-04T10:47:20;102871.41;;;7.30;45.24
58243;BME280;50118;53.232;8.252;2023-04-04T10:49:49;102869.88;;;7.62;44.38
58243;BME280;50118;53.232;8.252;2023-04-04T10:52:17;102864.34;;;8.21;39.66
58243;BME280;50118;53.232;8.252;2023-04-04T10:54:43;102872.53;;;7.05;43.10
58243;BME280;50118;53.232;8.252;2023-04-04T10:57:10;102865.75;;;7.19;43.23
58243;BME280;50118;53.232;8.252;2023-04-04T11:00:04;102867.94;;;6.90;43.17
58243;BME280;50118;53.232;8.252;2023-04-04T11:02:54;102859.00;;;7.50;41.34
58243;BME280;50118;53.232;8.252;2023-04-04T11:08:04;102854.91;;;6.85;44.78
58243;BME280;50118;53.232;8.252;2023-04-04T11:10:44;102855.66;;;7.46;44.63
58243;BME280;50118;53.232;8.252;2023-04-04T11:13:32;102856.06;;;7.37;42.78
58243;BME280;50118;53.232;8.252;2023-04-04T11:16:12;102843.91;;;7.14;44.02
58243;BME280;50118;53.232;8.252;2023-04-04T11:21:07;102849.03;;;8.09;37.85
58243;BME280;50118;53.232;8.252;2023-04-04T11:26:37;102840.34;;;9.40;39.23
58243;BME280;50118;53.232;8.252;2023-04-04T11:29:05;102843.78;;;7.90;39.46
58243;BME280;50118;53.232;8.252;2023-04-04T11:31:33;102830.50;;;8.42;39.11
58243;BME280;50118;53.232;8.252;2023-04-04T11:39:13;102827.69;;;7.39;42.02
58243;BME280;50118;53.232;8.252;2023-04-04T11:44:18;102828.41;;;7.42;39.56
58243;BME280;50118;53.232;8.252;2023-04-04T11:46:44;102819.09;;;7.15;39.75
58243;BME280;50118;53.232;8.252;2023-04-04T11:49:16;102825.94;;;7.57;40.96
58243;BME280;50118;53.232;8.252;2023-04-04T11:51:42;102812.97;;;8.73;39.48
58243;BME280;50118;53.232;8.252;2023-04-04T11:54:13;102817.97;;;8.11;38.34
58243;BME280;50118;53.232;8.252;2023-04-04T11:56:41;102808.34;;;7.73;38.23
58243;BME280;50118;53.232;8.252;2023-04-04T11:59:12;102802.13;;;8.09;38.95
58243;BME280;50118;53.232;8.252;2023-04-04T12:01:42;102801.72;;;8.34;40.20
58243;BME280;50118;53.232;8.252;2023-04-04T12:04:08;102793.28;;;8.77;39.46
58243;BME280;50118;53.232;8.252;2023-04-04T12:06:34;102794.63;;;8.17;39.60
58243;BME280;50118;53.232;8.252;2023-04-04T12:09:01;102791.13;;;8.68;39.54
58243;BME280;50118;53.232;8.252;2023-04-04T12:11:32;102790.00;;;7.86;41.37
58243;BME280;50118;53.232;8.252;2023-04-04T12:13:59;102798.22;;;7.08;41.31
58243;BME280;50118;53.232;8.252;2023-04-04T12:16:26;102793.50;;;7.52;41.45
58243;BME280;50118;53.232;8.252;2023-04-04T12:18:52;102804.53;;;7.79;43.21
58243;BME280;50118;53.232;8.252;2023-04-04T12:21:18;102799.44;;;7.74;42.79
58243;BME280;50118;53.232;8.252;2023-04-04T12:23:45;102784.78;;;7.67;41.05
58243;BME280;50118;53.232;8.252;2023-04-04T12:26:13;102780.66;;;7.96;41.32
58243;BME280;50118;53.232;8.252;2023-04-04T12:28:40;102771.97;;;8.45;39.40
58243;BME280;50118;53.232;8.252;2023-04-04T12:31:07;102768.09;;;8.84;39.37
58243;BME280;50118;53.232;8.252;2023-04-04T12:33:33;102758.91;;;8.74;40.11
58243;BME280;50118;53.232;8.252;2023-04-04T12:36:00;102762.06;;;7.96;41.77
58243;BME280;50118;53.232;8.252;2023-04-04T12:38:28;102752.13;;;8.35;43.61
58243;BME280;50118;53.232;8.252;2023-04-04T12:40:55;102757.16;;;7.89;40.29
58243;BME280;50118;53.232;8.252;2023-04-04T12:43:21;102751.31;;;7.82;41.12
58243;BME280;50118;53.232;8.252;2023-04-04T12:45:48;102747.66;;;8.02;39.19
58243;BME280;50118;53.232;8.252;2023-04-04T12:48:14;102742.09;;;7.89;40.45
58243;BME280;50118;53.232;8.252;2023-04-04T12:50:58;102742.16;;;8.05;39.43
58243;BME280;50118;53.232;8.252;2023-04-04T12:53:28;102733.34;;;8.55;39.97
58243;BME280;50118;53.232;8.252;2023-04-04T12:55:59;102732.16;;;8.28;39.26
58243;BME280;50118;53.232;8.252;2023-04-04T12:58:25;102736.53;;;7.76;41.42
58243;BME280;50118;53.232;8.252;2023-04-04T13:00:53;102730.00;;;7.66;42.63
58243;BME280;50118;53.232;8.252;2023-04-04T13:03:20;102729.06;;;7.84;40.27
58243;BME280;50118;53.232;8.252;2023-04-04T13:05:47;102733.56;;;8.17;40.42
58243;BME280;50118;53.232;8.252;2023-04-04T13:08:14;102727.19;;;8.04;38.36
58243;BME280;50118;53.232;8.252;2023-04-04T13:10:59;102714.16;;;7.82;40.29
58243;BME280;50118;53.232;8.252;2023-04-04T13:13:32;102712.59;;;7.78;39.35